Aviation Digital Data Service (ADDS)

Output produced by METARs form (2020 UTC 18 April 2021)
found at http://www.aviationweather.gov/metar/data/
 
Forecast for: LEMD (MADRID/BARAJAS , ES)
Text: TAF LEMD 181700Z 1818/1924 VRB04KT CAVOK TX20/1915Z TN04/1906Z
Forecast period: 1800 UTC 18 April 2021 to 0000 UTC 20 April 2021
Forecast type: FROM: standard forecast or significant change
Winds: variable direction winds at 5 MPH (4 knots; 2.1 m/s)
Visibility: 6 or more miles (10+ km)
Ceiling: unknown
Clouds: missing
Weather: no significant weather forecast for this period
Text: PROB30
Forecast period: 1800 to 2000 UTC 18 April 2021
Forecast type: TEMPORARY: The following changes expected for less than half the time period
Winds: from the SSW (210 degrees) at 9 MPH (8 knots; 4.1 m/s)
Visibility: missing
Ceiling: unknown
Clouds: missing
Weather: no significant weather forecast for this period